Weather observations for the past three days for
Athens Municipal Airport
Imperial (Metric)
Date Time (cdt) Wind (mph) Vis. (mi.) Weather Sky Cond. Temperature (ºF) Relative Humidity Wind Chill (°F) Heat Index (°F) Pressure Precipitation (in)
Air Dwpt 6 hour altimeter (in) sea level (mb) 1 hr 3 hr 6 hr
Max. Min.
01 02:55 Calm 10.00 Fair CLR 80.6 68 66% 83 30 0.0
01 02:35 Calm 10.00 Fair CLR 80.6 68 66% 83 29.99 0.0
01 02:15 SE 5 10.00 Fair CLR 80.6 68 66% 83 30 0.0
01 01:55 Calm 10.00 Fair CLR 82.4 68 62% 85 30 0.0
01 01:35 S 3 10.00 Fair CLR 82.4 66.2 58% 85 29.99 0.0
01 01:15 S 6 10.00 Fair CLR 82.4 66.2 58% 85 29.99 0.0
01 00:55 SE 5 10.00 Fair CLR 82.4 66.2 58% 85 29.99 0.0
01 00:35 Calm 10.00 Fair CLR 82.4 66.2 58% 85 29.98 0.0
01 00:15 S 3 10.00 Fair CLR 84.2 66.2 55% 87 29.98 0.0
31 23:55 SE 3 10.00 Fair CLR 84.2 64.4 51% 86 29.97 0.0
31 23:35 Calm 10.00 Fair CLR 86 64.4 49% 87 29.97 0.0
31 23:15 Calm 10.00 Fair CLR 86 64.4 49% 87 29.97 0.0
31 22:55 Calm 10.00 Fair CLR 86 64.4 49% 87 29.96 0.0
31 22:35 Calm 10.00 Fair CLR 86 64.4 49% 87 29.96 0.0
31 22:15 Calm 10.00 Fair CLR 87.8 64.4 46% 89 29.96 0.0
31 21:55 Calm 10.00 Fair CLR 87.8 64.4 46% 89 29.96 0.0
31 21:35 Calm 10.00 Fair CLR 87.8 64.4 46% 89 29.94 0.0
31 21:15 SE 5 10.00 Fair CLR 87.8 62.6 43% 88 29.94 0.0
31 20:55 Calm 10.00 Fair CLR 87.8 62.6 43% 88 29.94 0.0
31 20:35 Calm 10.00 Fair CLR 89.6 62.6 41% 90 29.93 0.0
31 20:15 Calm 10.00 Fair CLR 91.4 62.6 38% 92 29.93 0.0
31 19:55 Calm 10.00 Fair CLR 91.4 62.6 38% 92 29.93 0.0
31 19:35 Calm 10.00 Fair CLR 95 62.6 34% 96 29.93 0.0
31 19:15 SE 3 10.00 Fair CLR 96.8 62.6 32% 98 29.92 0.0
31 18:35 E 7 10.00 Partly Cloudy SCT085 98.6 62.6 31% 100 29.92 0.0
31 18:15 SE 5 10.00 Fair CLR 98.6 60.8 29% 99 29.92 0.0
31 17:55 S 9 10.00 Fair CLR 98.6 60.8 29% 99 29.92 0.0
31 17:35 E 6 10.00 Partly Cloudy SCT085 98.6 60.8 29% 99 29.92 0.0
31 17:15 SE 6 10.00 Partly Cloudy SCT085 98.6 60.8 29% 99 29.93 0.0
31 16:55 S 6 10.00 Fair CLR 98.6 60.8 29% 99 29.93 0.0
31 16:35 S 6 10.00 Partly Cloudy SCT110 98.6 60.8 29% 99 29.94 0.0
31 16:15 SE 6 10.00 Fair CLR 98.6 60.8 29% 99 29.94 0.0
31 15:55 S 8 10.00 Partly Cloudy SCT090 SCT110 98.6 62.6 31% 100 29.95 0.0
31 15:35 SE 8 10.00 Mostly Cloudy BKN080 98.6 59 27% 98 29.96 0.0
31 15:15 S 7 10.00 Partly Cloudy SCT080 98.6 60.8 29% 99 29.97 0.0
31 14:55 E 3 10.00 Partly Cloudy SCT070 SCT090 98.6 62.6 31% 100 29.97 0.0
31 14:35 SE 5 10.00 Partly Cloudy SCT070 98.6 60.8 29% 99 29.99 0.0
31 14:15 NE 3 10.00 Partly Cloudy SCT100 96.8 62.6 32% 98 29.99 0.0
31 13:55 E 7 10.00 Partly Cloudy SCT080 SCT100 95 64.4 36% 97 30 0.0
31 13:35 Calm 10.00 Partly Cloudy SCT065 96.8 62.6 32% 98 30 0.0
31 13:15 NW 3 10.00 Partly Cloudy SCT065 95 66.2 39% 98 30.01 0.0
31 12:55 S 8 10.00 Partly Cloudy SCT060 96.8 68 39% 102 30.02 0.0
31 12:35 S 7 10.00 Fair CLR 95 68 41% 100 30.03 0.0
31 12:15 SE 8 10.00 Fair CLR 93.2 68 44% 98 30.04 0.0
31 11:55 SW 5 10.00 Fair CLR 91.4 68 46% 96 30.04 0.0
31 11:35 S 3 10.00 Fair CLR 91.4 68 46% 96 30.05 0.0
31 11:15 SW 5 10.00 Fair CLR 89.6 68 49% 93 30.05 0.0
31 10:55 Calm 10.00 Fair CLR 89.6 68 49% 93 30.05 0.0
31 10:35 Calm 10.00 Fair CLR 87.8 69.8 55% 93 30.05 0.0
31 10:15 S 5 10.00 Fair CLR 87.8 69.8 55% 93 30.04 0.0
31 09:55 Calm 10.00 Fair CLR 86 71.6 62% 92 30.04 0.0
31 09:35 S 3 10.00 Fair CLR 82.4 71.6 70% 87 30.04 0.0
31 09:15 Calm 10.00 Fair CLR 82.4 71.6 70% 87 30.04 0.0
31 08:55 S 3 10.00 Fair CLR 80.6 71.6 74% 85 30.03 0.0
31 08:35 S 3 10.00 Fair CLR 78.8 69.8 74% 81 30.03 0.0
31 08:15 S 5 10.00 Fair CLR 77 69.8 79% 79 30.03 0.0
31 07:55 Calm 10.00 Fair CLR 75.2 69.8 83% 75 30.02 0.0
31 07:35 Calm 10.00 Fair CLR 73.4 68 83% 30.01 0.0
31 07:15 Calm 10.00 Fair CLR 71.6 68 88% 30.01 0.0
31 06:55 Calm 10.00 Fair CLR 73.4 68 83% 30 0.0
31 06:35 Calm 10.00 Fair CLR 73.4 68 83% 29.99 0.0
31 06:15 Calm 10.00 Fair CLR 73.4 68 83% 29.99 0.0
31 05:55 Calm 10.00 Fair CLR 75.2 68 78% 76 29.99 0.0
31 05:35 Calm 10.00 Fair CLR 77 68 74% 79 29.99 0.0
31 05:15 Calm 10.00 Mostly Cloudy SCT075 BKN100 77 68 74% 79 29.99 0.0
31 04:55 Calm 10.00 Overcast BKN070 OVC100 77 68 74% 79 29.99 0.0
31 04:35 Calm 10.00 Mostly Cloudy SCT070 BKN100 77 68 74% 79 29.99 0.0
31 04:15 Calm 10.00 Mostly Cloudy BKN100 77 68 74% 79 29.98 0.0
31 03:55 Calm 10.00 Partly Cloudy SCT100 78.8 68 70% 81 29.98 0.0
31 03:35 Calm 10.00 Fair CLR 78.8 68 70% 81 29.98 0.0
31 03:15 S 3 10.00 Fair CLR 80.6 68 66% 83 29.97 0.0
31 02:55 S 5 10.00 Fair CLR 80.6 68 66% 83 29.97 0.0
31 02:35 S 3 10.00 Fair CLR 80.6 68 66% 83 29.97 0.0
31 02:15 S 5 10.00 Fair CLR 80.6 68 66% 83 29.97 0.0
31 01:55 S 6 10.00 Fair CLR 80.6 66.2 62% 83 29.97 0.0
31 01:35 S 6 10.00 Fair CLR 82.4 66.2 58% 85 29.97 0.0
31 01:15 S 5 10.00 Partly Cloudy SCT080 80.6 66.2 62% 83 29.98 0.0
31 00:55 Calm 10.00 Partly Cloudy SCT080 77 68 74% 79 29.97 0.0
31 00:35 Calm 10.00 Fair CLR 77 68 74% 79 29.96 0.0
31 00:15 Calm 10.00 Fair CLR 77 68 74% 79 29.96 0.0
30 23:55 Calm 10.00 Fair CLR 78.8 68 70% 81 29.96 0.0
30 23:35 Calm 10.00 Fair CLR 78.8 68 70% 81 29.95 0.0
30 23:15 Calm 10.00 Fair CLR 78.8 68 70% 81 29.95 0.0
30 22:55 Calm 10.00 Fair CLR 80.6 68 66% 83 29.95 0.0
30 22:35 Calm 10.00 Fair CLR 80.6 66.2 62% 83 29.94 0.0
30 22:15 Calm 10.00 Fair CLR 82.4 66.2 58% 85 29.94 0.0
30 21:55 Calm 10.00 Fair CLR 82.4 66.2 58% 85 29.93 0.0
30 21:35 Calm 10.00 Fair CLR 82.4 66.2 58% 85 29.93 0.0
30 21:15 Calm 10.00 Fair CLR 86 64.4 49% 87 29.92 0.0
30 20:55 Calm 10.00 Fair CLR 87.8 64.4 46% 89 29.91 0.0
30 20:35 Calm 10.00 Mostly Cloudy BKN085 87.8 64.4 46% 89 29.91 0.0
30 20:15 Calm 10.00 Mostly Cloudy BKN085 89.6 66.2 46% 92 29.9 0.0
30 19:55 Calm 10.00 Partly Cloudy SCT085 91.4 62.6 38% 92 29.9 0.0
30 19:35 S 3 10.00 Partly Cloudy SCT085 95 62.6 34% 96 29.9 0.0
30 19:15 Calm 10.00 Fair CLR 96.8 60.8 30% 97 29.9 0.0
30 18:55 SE 5 10.00 Fair CLR 96.8 60.8 30% 97 29.9 0.0
30 18:35 S 5 10.00 Partly Cloudy SCT085 96.8 62.6 32% 98 29.9 0.0
30 18:15 S 6 10.00 Partly Cloudy SCT085 98.6 62.6 31% 100 29.91 0.0
30 17:55 S 6 10.00 Partly Cloudy SCT085 98.6 60.8 29% 99 29.9 0.0
30 17:35 SW 5 10.00 Partly Cloudy SCT085 98.6 60.8 29% 99 29.91 0.0
30 17:15 S 3 10.00 Partly Cloudy SCT085 SCT100 98.6 60.8 29% 99 29.91 0.0
30 16:55 E 7 10.00 Fair CLR 98.6 60.8 29% 99 29.91 0.0
30 16:35 S 8 10.00 Partly Cloudy SCT100 100.4 60.8 27% 101 29.92 0.0
30 16:15 W 3 10.00 Fair CLR 98.6 60.8 29% 99 29.92 0.0
30 15:55 S 5 10.00 Fair CLR 98.6 60.8 29% 99 29.93 0.0
30 15:35 S 6 G 16 10.00 Fair CLR 98.6 60.8 29% 99 29.94 0.0
30 15:15 S 6 10.00 Partly Cloudy SCT080 SCT100 96.8 60.8 30% 97 29.95 0.0
30 14:55 SE 8 10.00 Mostly Cloudy SCT080 BKN095 96.8 62.6 32% 98 29.96 0.0
30 14:35 S 8 10.00 Partly Cloudy SCT065 SCT080 98.6 62.6 31% 100 29.97 0.0
30 14:15 S 7 10.00 Mostly Cloudy BKN065 BKN090 98.6 62.6 31% 100 29.98 0.0
30 13:55 Calm 10.00 Partly Cloudy SCT065 SCT100 96.8 64.4 34% 99 29.98 0.0
30 13:35 W 3 10.00 Fair CLR 95 66.2 39% 98 29.99 0.0
30 13:15 Calm 10.00 Fair CLR 95 66.2 39% 98 30 0.0
30 12:55 S 8 10.00 Fair CLR 95 64.4 36% 97 30.01 0.0
30 12:35 S 8 10.00 Fair CLR 95 66.2 39% 98 30.01 0.0
30 12:15 S 12 10.00 Fair CLR 95 66.2 39% 98 30.02 0.0
30 11:55 S 7 10.00 Fair CLR 91.4 68 46% 96 30.03 0.0
30 11:35 S 6 10.00 Fair CLR 91.4 68 46% 96 30.04 0.0
30 11:15 Calm 10.00 Fair CLR 89.6 68 49% 93 30.04 0.0
30 10:55 Calm 10.00 Fair CLR 87.8 69.8 55% 93 30.04 0.0
30 10:35 SW 6 10.00 Fair CLR 87.8 69.8 55% 93 30.04 0.0
30 10:15 SW 6 10.00 Fair CLR 86 69.8 59% 91 30.04 0.0
30 09:55 SW 3 10.00 Fair CLR 86 71.6 62% 92 30.04 0.0
30 09:35 SW 3 10.00 Fair CLR 82.4 71.6 70% 87 30.04 0.0
30 09:15 S 8 10.00 Fair CLR 82.4 71.6 70% 87 30.04 0.0
30 08:55 S 6 10.00 Fair CLR 80.6 71.6 74% 85 30.04 0.0
30 08:35 S 5 10.00 Fair CLR 78.8 71.6 79% 82 30.04 0.0
30 08:15 S 3 10.00 Fair CLR 78.8 71.6 79% 82 30.03 0.0
30 07:55 S 3 10.00 Fair CLR 77 71.6 83% 78 30.03 0.0
30 07:35 Calm 10.00 Fair CLR 73.4 69.8 89% 30.02 0.0
30 07:15 Calm 10.00 Fair CLR 71.6 68 88% 30.01 0.0
30 06:55 Calm 10.00 Fair CLR 71.6 68 88% 30.01 0.0
30 06:35 Calm 10.00 Fair CLR 73.4 68 83% 30 0.0
30 06:15 Calm 10.00 Fair CLR 73.4 68 83% 30 0.0
30 05:55 Calm 10.00 Fair CLR 73.4 66.2 78% 30 0.0
30 05:35 Calm 10.00 Fair CLR 71.6 66.2 83% 29.99 0.0
30 05:15 S 3 10.00 Fair CLR 71.6 64.4 78% 29.99 0.0
30 04:55 Calm 10.00 Fair CLR 73.4 64.4 74% 29.99 0.0
30 04:35 Calm 10.00 Fair CLR 73.4 64.4 74% 29.99 0.0
30 04:15 Calm 10.00 Fair CLR 73.4 64.4 74% 29.99 0.0
30 03:55 S 3 10.00 Fair CLR 73.4 64.4 74% 29.99 0.0
30 03:35 Calm 10.00 Fair CLR 75.2 64.4 69% 77 29.99 0.0
30 03:15 Calm 10.00 Fair CLR 73.4 64.4 74% 29.99 0.0
30 02:55 Calm 10.00 Fair CLR 75.2 62.6 65% 77 29.99 0.0
30 02:35 Calm 10.00 Fair CLR 73.4 64.4 74% 29.99 0.0
30 02:15 Calm 10.00 Fair CLR 77 62.6 61% 79 29.99 0.0
30 01:55 Calm 10.00 Fair CLR 77 62.6 61% 79 29.99 0.0
30 01:35 Calm 10.00 Fair CLR 78.8 64.4 61% 81 29.99 0.0
30 01:15 Calm 10.00 Fair CLR 78.8 62.6 58% 80 29.99 0.0
30 00:55 SE 3 10.00 Fair CLR 80.6 62.6 54% 82 29.98 0.0
30 00:35 Calm 10.00 Fair CLR 80.6 62.6 54% 82 29.98 0.0
30 00:15 Calm 10.00 Partly Cloudy SCT090 80.6 62.6 54% 82 29.98 0.0
29 23:55 Calm 10.00 Partly Cloudy SCT090 78.8 64.4 61% 81 29.98 0.0
29 23:35 Calm 10.00 Partly Cloudy SCT090 80.6 64.4 58% 82 29.98 0.0
29 23:15 Calm 10.00 Fair CLR 80.6 64.4 58% 82 29.97 0.0
29 22:55 Calm 10.00 Fair CLR 78.8 66.2 65% 81 29.97 0.0
29 22:35 Calm 10.00 Fair CLR 78.8 66.2 65% 81 29.96 0.0
29 22:15 Calm 10.00 Fair CLR 80.6 64.4 58% 82 29.96 0.0
29 21:55 Calm 10.00 Fair CLR 80.6 64.4 58% 82 29.96 0.0
29 21:35 Calm 10.00 Fair CLR 80.6 64.4 58% 82 29.96 0.0
29 21:15 Calm 10.00 Fair CLR 82.4 64.4 55% 84 29.95 0.0
29 20:55 Calm 10.00 Fair CLR 84.2 64.4 51% 86 29.94 0.0
29 20:35 Calm 10.00 Fair CLR 86 64.4 49% 87 29.94 0.0
29 20:15 Calm 10.00 Fair CLR 87.8 64.4 46% 89 29.94 0.0
29 19:55 Calm 10.00 Fair CLR 89.6 62.6 41% 90 29.93 0.0
29 19:35 Calm 10.00 Fair CLR 93.2 60.8 34% 93 29.93 0.0
29 19:15 Calm 10.00 Fair CLR 96.8 60.8 30% 97 29.93 0.0
29 18:55 S 5 10.00 Fair CLR 96.8 60.8 30% 97 29.93 0.0
29 18:35 S 6 10.00 Fair CLR 98.6 59 27% 98 29.93 0.0
29 18:15 Calm 10.00 Fair CLR 98.6 59 27% 98 29.93 0.0
29 17:55 Calm 10.00 Fair CLR 98.6 57.2 25% 98 29.93 0.0
29 17:35 SW 5 10.00 Fair CLR 98.6 59 27% 98 29.94 0.0
29 17:15 SW 3 10.00 Fair CLR 98.6 60.8 29% 99 29.94 0.0
29 16:55 Calm 10.00 Partly Cloudy SCT120 98.6 60.8 29% 99 29.94 0.0
29 16:35 SE 3 10.00 Overcast SCT095 OVC120 96.8 60.8 30% 97 29.95 0.0
29 16:15 SE 3 10.00 Overcast BKN085 OVC110 96.8 60.8 30% 97 29.96 0.0
29 15:55 Calm 10.00 Mostly Cloudy SCT085 BKN110 98.6 60.8 29% 99 29.96 0.0
29 15:35 Calm 7.00 Partly Cloudy SCT085 98.6 60.8 29% 99 29.97 0.0
29 15:15 E 8 10.00 Partly Cloudy SCT090 SCT110 100.4 60.8 27% 101 29.98 0.0
29 14:55 Calm 10.00 Mostly Cloudy BKN090 98.6 60.8 29% 99 29.99 0.0
29 14:35 S 3 10.00 Partly Cloudy SCT090 98.6 60.8 29% 99 30 0.0
29 14:15 SE 5 10.00 Fair CLR 98.6 59 27% 98 30.01 0.0
29 13:55 SE 3 10.00 Partly Cloudy SCT100 98.6 60.8 29% 99 30.02 0.0
29 13:35 S 7 10.00 Fair CLR 98.6 64.4 33% 101 30.03 0.0
29 13:15 S 7 10.00 Fair CLR 96.8 64.4 34% 99 30.03 0.0
29 12:55 S 8 10.00 Fair CLR 95 64.4 36% 97 30.04 0.0
29 12:35 S 6 10.00 Fair CLR 95 66.2 39% 98 30.05 0.0
29 12:15 SW 3 10.00 Fair CLR 95 64.4 36% 97 30.05 0.0
29 11:55 S 5 10.00 Fair CLR 93.2 64.4 39% 95 30.06 0.0
29 11:35 Calm 10.00 Fair CLR 91.4 64.4 41% 93 30.06 0.0
29 11:15 Calm 10.00 Fair CLR 91.4 66.2 44% 94 30.06 0.0
29 10:55 Calm 10.00 Fair CLR 89.6 66.2 46% 92 30.06 0.0
29 10:35 Calm 10.00 Fair CLR 87.8 68 52% 91 30.07 0.0
29 10:15 Calm 10.00 Fair CLR 86 68 55% 89 30.07 0.0
29 09:55 Calm 10.00 Fair CLR 86 68 55% 89 30.07 0.0
29 09:35 SE 3 10.00 Fair CLR 82.4 68 62% 85 30.07 0.0
29 09:15 Calm 10.00 Fair CLR 80.6 68 66% 83 30.07 0.0
29 08:55 Calm 10.00 Fair CLR 78.8 68 70% 81 30.07 0.0
29 08:35 Calm 10.00 Fair CLR 77 68 74% 79 30.07 0.0
29 08:15 Calm 10.00 Fair CLR 75.2 68 78% 76 30.07 0.0
29 07:55 Calm 10.00 Fair CLR 73.4 68 83% 30.07 0.0
29 07:35 Calm 10.00 Fair CLR 71.6 68 88% 30.06 0.0
29 07:15 Calm 10.00 Fair CLR 71.6 68 88% 30.05 0.0
29 06:55 Calm 10.00 Fair CLR 71.6 66.2 83% 30.05 0.0
29 06:35 Calm 10.00 Fair CLR 71.6 66.2 83% 30.05 0.0
29 06:15 Calm 10.00 Fair CLR 71.6 68 88% 30.05 0.0
29 05:55 Calm 10.00 Fair CLR 71.6 68 88% 30.04 0.0
29 05:35 Calm 10.00 Fair CLR 73.4 68 83% 30.04 0.0
29 05:15 Calm 10.00 Fair CLR 73.4 68 83% 30.04 0.0
29 04:55 Calm 10.00 Fair CLR 73.4 68 83% 30.04 0.0
29 04:35 Calm 10.00 Fair CLR 73.4 68 83% 30.04 0.0
29 04:15 Calm 10.00 Fair CLR 73.4 68 83% 30.03 0.0
29 03:55 Calm 10.00 Fair CLR 77 68 74% 79 30.03 0.0
29 03:35 Calm 10.00 Fair CLR 77 68 74% 79 30.02 0.0
29 03:15 Calm 10.00 Fair CLR 75.2 68 78% 76 30.03 0.0
Date Time (cdt) Wind (mph) Vis. (mi.) Weather Sky Cond. Air Dwpt Max. Min. Relative Humidity Wind Chill (°F) Heat Index (°F) altimeter (in) sea level (mb) 1 hr 3 hr 6 hr
6 hour
Temperature (ºF) Pressure Precipitation (in)